Aeroporto :
LOGIN :

Iscrizione | Disclaimer

   EN    FR    IT 

 










Sommario :    VFR   VFR Marginale   IFR   IFR Intensivo   IFR Molto Intensivo
Visibilità : 
Base nubi : 
>= 8 km
>= 3000ft
5 / 8 km
1000 / 3000 ft
1500m / 5 km
500 / 1000 ft
800 / 1500m
200 / 500 ft
< 800m
< 200 ft
Simboli :   Temporali  Nebbia  Neve Forte  Precipitazioni Forti  Vento > 20 kt
SIGMETs :   Varie  Temporali  Ghiacco  Turbolenza  Onda orograficha  Ceneri Vulcaniche






- Altitudine del aeroporto : 408 ft
- Codice IATA : FKB


EDSB - Karlsruhe Baden Baden

ULTIMO METAR :
  • 230750Z 20011KT CAVOK 22/16 Q1020

METARs OBSOLETI :
  • 230720Z 21009KT CAVOK 20/16 Q1021
  • 230650Z 21008KT 9999 BKN049 20/16 Q1021
  • 230620Z 22008KT CAVOK 20/16 Q1021
  • 230550Z 21006KT CAVOK 19/16 Q1020
  • 230520Z 22005KT CAVOK 18/16 Q1020
  • 230450Z 22004KT CAVOK 18/16 Q1020
  • 230420Z 22004KT 9999 OVC049 18/16 Q1020
  • 230350Z 21004KT 9000 2100 OVC049 18/16 Q1020
  • 230320Z 21004KT CAVOK 18/16 Q1020

TAF TAF EDSB
Valido dal 23 a 06 ore il 24 a 06 ore UTC


230500Z 2306/2406 22004KT CAVOK
BECMG 2307/2309 24009KT
PROB40
TEMPO 2317/2321 30015G25KT 4000 TSRA BKN030CB
BECMG 2320/2322 20003KT



MetMap, La meteo Aeronautica in un colpo d'occhio ! - Copyright ORBIFLY Dicembre 2007 - Disclaimer

ORBIFLY MET'MAP TEAM :

Programmazione e sviluppo : Alexandra Zaïnal
Concezione : Baudouin d'Aumeries
Supporto tecnico e logistico : Manuel Goepfert
Aiuto : Marc-Olivier Méhu
Aiuto per la traduzione : Arnaldo La Scala




FONTI E CREDITI :

   NOAA